24h
KLIENDITUGI:
Saartelennuliinid: +372 58856336 (24/7)
Estairi piletikassa lennujaamas:
+372 6058887; +372 55603687

30.04.2018 hommikune Transaviabaltika lend KTB670 kell 07:00 (kohalik aeg) Tallinn - Kärdla väljalend ja KTB671 kell 07:45 Kärdla – Tallinn väljalend on tühistatud. Lennu tühistamise põhjustab udu Tallinna ja Kärdla lennuväljal. Lennureisijatele tagastatakse piletiraha. Informatsiooni vahetuse e-mail: [email protected], telefon: 58856336.

EEKA Kärdla lennuväli FCEO32 EETN

300300 TAF EEKA 300300Z 3004/3010 04010KT 2000 BCFG BR BKN003

TEMPO 3004/3006 0400 FG VV001 BECMG 3006/3008 6000 OVC004=

METAR EEKA 300250Z 02007KT 0500 FG VV002 05/05 Q1014=
Kuupäev: 
30/04/2018